Time;durP1;ratioP1;P1;durP2;ratioP2;P2;SDS_P1;SDS_P2;PMS_P1;PMS_P2;Temp;Humidity;BMP_temperature;BMP_pressure;BME280_temperature;BME280_humidity;BME280_pressure;Samples;Min_cycle;Max_cycle;Signal;HPM_P1;HPM_P2
2023/08/14 04:02:15;;;;;;;4.30;1.53;;;17.00;97.30;;;;;;5185538;23;20495;-89
2023/08/14 04:04:42;;;;;;;1.27;1.17;;;17.00;97.30;;;;;;4932641;29;20478;-88
2023/08/14 04:07:08;;;;;;;1.60;1.53;;;17.00;97.30;;;;;;4932787;29;20523;-89
2023/08/14 04:09:33;;;;;;;1.70;1.60;;;17.00;97.30;;;;;;4932714;29;20949;-88
2023/08/14 04:12:01;;;;;;;1.37;1.00;;;17.00;97.30;;;;;;4933159;29;20267;-88
2023/08/14 04:14:27;;;;;;;2.80;2.40;;;16.90;97.30;;;;;;4957061;23;20223;-64
2023/08/14 04:16:54;;;;;;;1.10;1.00;;;16.90;97.30;;;;;;4930155;29;20822;-64
2023/08/14 04:19:20;;;;;;;1.70;1.60;;;16.90;97.30;;;;;;4928349;29;20180;-64
2023/08/14 04:21:47;;;;;;;1.10;1.00;;;16.90;97.30;;;;;;4928559;29;20475;-64
2023/08/14 04:24:13;;;;;;;2.47;1.43;;;16.90;97.30;;;;;;4929167;29;20466;-64
2023/08/14 04:26:39;;;;;;;1.40;1.30;;;16.90;97.30;;;;;;4922069;28;20490;-64
2023/08/14 04:29:06;;;;;;;1.73;1.63;;;16.90;97.30;;;;;;4929149;29;20831;-64
2023/08/14 04:31:36;;;;;;;1.73;1.70;;;16.90;97.30;;;;;;4930943;29;20439;-64
2023/08/14 04:34:02;;;;;;;3.17;2.23;;;16.90;97.30;;;;;;4924407;29;20423;-64
2023/08/14 04:36:30;;;;;;;1.87;1.70;;;16.90;97.30;;;;;;4930114;29;20431;-64
2023/08/14 04:38:55;;;;;;;5.70;2.13;;;16.90;97.30;;;;;;4926796;29;20441;-64
2023/08/14 04:41:21;;;;;;;2.40;1.87;;;16.90;97.30;;;;;;4925483;29;20478;-64
2023/08/14 04:43:46;;;;;;;1.23;1.13;;;16.90;97.30;;;;;;4925506;29;20589;-64
2023/08/14 04:46:28;;;;;;;1.47;1.40;;;17.00;97.30;;;;;;4928673;29;20231;-64
2023/08/14 04:48:54;;;;;;;3.23;1.10;;;17.00;97.30;;;;;;4929675;29;20184;-64
2023/08/14 04:51:19;;;;;;;8.20;1.50;;;17.00;97.30;;;;;;4930297;29;20794;-64
2023/08/14 04:53:45;;;;;;;2.60;1.80;;;17.10;97.30;;;;;;4928121;29;20545;-64
2023/08/14 04:56:11;;;;;;;2.00;1.90;;;17.20;97.30;;;;;;4930571;29;20658;-65
2023/08/14 04:58:36;;;;;;;1.87;1.77;;;17.20;97.30;;;;;;4928553;29;20682;-64
2023/08/14 05:01:02;;;;;;;1.10;1.00;;;17.30;97.30;;;;;;4926092;29;20757;-65
2023/08/14 05:03:27;;;;;;;2.10;1.97;;;17.40;97.30;;;;;;4929635;29;20602;-64
2023/08/14 05:05:53;;;;;;;1.47;1.47;;;17.40;97.30;;;;;;4925974;29;20176;-65
2023/08/14 05:08:19;;;;;;;1.37;1.27;;;17.50;97.30;;;;;;4930426;29;20292;-65
2023/08/14 05:10:52;;;;;;;1.47;1.37;;;17.50;97.30;;;;;;4927316;29;20290;-65
2023/08/14 05:13:18;;;;;;;1.73;1.63;;;17.60;97.30;;;;;;4929433;29;20475;-65
2023/08/14 05:15:46;;;;;;;1.60;1.50;;;17.60;97.30;;;;;;4926591;29;20503;-65
2023/08/14 05:18:12;;;;;;;1.53;1.43;;;17.70;97.30;;;;;;4929897;29;20447;-64
2023/08/14 05:20:37;;;;;;;1.17;1.07;;;17.70;97.30;;;;;;4929236;29;20463;-64
2023/08/14 05:23:03;;;;;;;2.27;2.07;;;17.70;97.30;;;;;;4927794;29;20188;-64
2023/08/14 05:25:30;;;;;;;1.23;1.13;;;17.80;97.30;;;;;;4925163;29;20562;-65
2023/08/14 05:27:55;;;;;;;1.03;0.93;;;17.80;97.30;;;;;;4926996;29;20519;-64
2023/08/14 05:30:21;;;;;;;2.30;1.93;;;17.80;97.30;;;;;;4928111;29;20203;-65
2023/08/14 05:32:47;;;;;;;1.83;1.73;;;17.90;97.30;;;;;;4930179;29;20187;-64
2023/08/14 05:35:13;;;;;;;1.80;1.40;;;17.90;97.30;;;;;;4928330;29;20192;-64
2023/08/14 05:37:39;;;;;;;1.60;1.40;;;18.00;97.30;;;;;;4928883;28;20447;-65
2023/08/14 05:40:06;;;;;;;1.50;1.40;;;18.00;97.30;;;;;;4927592;29;20227;-64
2023/08/14 05:42:32;;;;;;;1.10;1.00;;;18.10;97.30;;;;;;4929835;29;20559;-65
2023/08/14 05:44:57;;;;;;;1.73;1.63;;;18.20;97.30;;;;;;4929637;29;20482;-64
2023/08/14 05:47:23;;;;;;;1.33;1.23;;;18.20;97.30;;;;;;4927750;29;20243;-65
2023/08/14 05:49:48;;;;;;;2.50;2.33;;;18.30;97.30;;;;;;4928387;29;20242;-65
2023/08/14 05:52:14;;;;;;;1.00;0.90;;;18.30;97.30;;;;;;4934227;29;20199;-65
2023/08/14 05:54:40;;;;;;;1.20;1.10;;;18.40;97.30;;;;;;4931272;29;20565;-64
2023/08/14 05:57:06;;;;;;;1.20;1.10;;;18.50;97.30;;;;;;4932463;29;20234;-65
2023/08/14 05:59:32;;;;;;;2.73;1.67;;;18.50;97.30;;;;;;4932850;29;20188;-64
2023/08/14 06:01:58;;;;;;;1.90;1.70;;;18.50;97.30;;;;;;4930971;29;20290;-65
2023/08/14 06:04:25;;;;;;;1.90;1.80;;;18.60;97.30;;;;;;4931635;29;20581;-64
2023/08/14 06:06:51;;;;;;;1.93;1.83;;;18.70;97.30;;;;;;4931781;29;20192;-65
2023/08/14 06:09:17;;;;;;;1.53;1.33;;;18.70;97.30;;;;;;4932748;29;20931;-65
2023/08/14 06:11:43;;;;;;;2.93;1.40;;;18.80;97.30;;;;;;4932909;29;20214;-65
2023/08/14 06:14:09;;;;;;;2.63;1.30;;;18.90;97.30;;;;;;4933329;29;20813;-65
2023/08/14 06:16:34;;;;;;;2.03;1.93;;;19.00;97.30;;;;;;4931247;29;20208;-65
2023/08/14 06:19:00;;;;;;;2.00;1.53;;;19.10;97.30;;;;;;4929194;29;20202;-65
2023/08/14 06:21:26;;;;;;;1.40;1.10;;;19.10;97.30;;;;;;4933276;29;20299;-65
2023/08/14 06:23:51;;;;;;;1.57;1.23;;;19.20;97.30;;;;;;4933535;29;20207;-65
2023/08/14 06:26:17;;;;;;;4.67;2.30;;;19.30;97.30;;;;;;4930445;29;20279;-65
2023/08/14 06:28:42;;;;;;;1.07;0.90;;;19.40;97.30;;;;;;4932584;29;20184;-65
2023/08/14 06:31:09;;;;;;;1.00;1.00;;;19.40;97.30;;;;;;4929960;29;20199;-65
2023/08/14 06:33:34;;;;;;;2.60;1.10;;;19.50;97.30;;;;;;4932065;29;20188;-65
2023/08/14 06:36:00;;;;;;;3.00;1.90;;;19.60;97.30;;;;;;4931804;29;20530;-64
2023/08/14 06:38:25;;;;;;;1.10;1.00;;;19.60;97.30;;;;;;4931702;29;20274;-66
2023/08/14 06:40:51;;;;;;;2.90;1.50;;;19.70;97.30;;;;;;4931282;29;20684;-65
2023/08/14 06:43:16;;;;;;;1.17;1.10;;;19.80;97.30;;;;;;4931263;29;20323;-65
2023/08/14 06:45:42;;;;;;;1.57;1.43;;;19.80;97.30;;;;;;4931974;29;20196;-65
2023/08/14 06:48:08;;;;;;;1.70;1.10;;;19.90;97.30;;;;;;4930312;29;20632;-65
2023/08/14 06:50:33;;;;;;;1.63;1.53;;;20.00;97.30;;;;;;4930759;29;20760;-65
2023/08/14 06:52:59;;;;;;;1.37;1.20;;;20.00;97.30;;;;;;4925113;29;20191;-66
2023/08/14 06:55:24;;;;;;;1.37;1.00;;;20.10;97.30;;;;;;4923539;29;20278;-66
2023/08/14 06:57:50;;;;;;;1.80;1.70;;;20.20;97.30;;;;;;4930283;29;20665;-65
2023/08/14 07:00:16;;;;;;;1.27;1.03;;;20.30;97.30;;;;;;4932006;29;20191;-65
2023/08/14 07:02:45;;;;;;;0.70;0.70;;;20.40;97.30;;;;;;4931475;29;20600;-65
2023/08/14 07:05:11;;;;;;;1.20;1.10;;;20.50;97.30;;;;;;4931539;29;20479;-66
2023/08/14 07:07:36;;;;;;;1.67;1.37;;;20.70;97.30;;;;;;4933184;29;20420;-66
2023/08/14 07:10:02;;;;;;;1.70;1.27;;;20.80;97.30;;;;;;4932165;29;20207;-66
2023/08/14 07:12:27;;;;;;;1.50;1.37;;;20.90;97.30;;;;;;4932185;29;20200;-66
2023/08/14 07:14:53;;;;;;;1.13;1.03;;;20.90;97.30;;;;;;4931692;29;20271;-65
2023/08/14 07:17:19;;;;;;;1.57;1.23;;;21.00;97.30;;;;;;4922983;29;20564;-65
2023/08/14 07:19:44;;;;;;;1.20;1.10;;;21.20;97.30;;;;;;4933149;29;20711;-66
2023/08/14 07:22:10;;;;;;;1.87;1.77;;;21.30;97.30;;;;;;4927618;29;20246;-66
2023/08/14 07:24:35;;;;;;;1.67;1.37;;;21.40;97.30;;;;;;4928716;28;20212;-65
2023/08/14 07:27:01;;;;;;;0.90;0.80;;;21.60;97.30;;;;;;4928670;29;20184;-65
2023/08/14 07:29:26;;;;;;;1.10;1.00;;;21.70;97.30;;;;;;4931796;29;20199;-65
2023/08/14 07:31:52;;;;;;;2.37;1.30;;;21.80;97.30;;;;;;4919806;29;20208;-65
2023/08/14 07:34:17;;;;;;;1.03;0.93;;;21.90;97.30;;;;;;4914535;29;20189;-66
2023/08/14 07:36:43;;;;;;;1.33;1.23;;;22.10;97.30;;;;;;4928195;29;20195;-65
2023/08/14 07:39:08;;;;;;;1.23;1.00;;;22.20;97.30;;;;;;4929939;29;20648;-66
2023/08/14 07:41:34;;;;;;;1.10;1.00;;;22.30;97.30;;;;;;4929386;29;20771;-65
2023/08/14 07:44:00;;;;;;;0.90;0.80;;;22.40;97.30;;;;;;4930287;29;20204;-65
2023/08/14 07:46:25;;;;;;;1.20;0.90;;;22.50;97.30;;;;;;4927208;29;20181;-66
2023/08/14 07:48:51;;;;;;;0.90;0.80;;;22.60;97.30;;;;;;4927588;29;20184;-66
2023/08/14 07:51:16;;;;;;;0.97;0.93;;;22.70;97.30;;;;;;4929395;29;20215;-66
2023/08/14 07:53:42;;;;;;;1.67;1.10;;;22.80;97.30;;;;;;4928922;29;20259;-66
2023/08/14 07:56:07;;;;;;;3.33;1.20;;;22.90;97.30;;;;;;4929311;29;20299;-66
2023/08/14 07:58:33;;;;;;;1.03;0.93;;;23.00;97.30;;;;;;4926162;29;20188;-65
2023/08/14 08:00:58;;;;;;;1.03;0.93;;;23.10;97.30;;;;;;4928328;29;20695;-66
2023/08/14 08:03:24;;;;;;;1.33;1.23;;;23.10;97.30;;;;;;4929815;29;20208;-65
2023/08/14 08:05:50;;;;;;;0.90;0.80;;;23.20;96.90;;;;;;4917497;29;20180;-66
2023/08/14 08:08:15;;;;;;;1.53;1.43;;;23.20;97.10;;;;;;4922717;29;20184;-66
2023/08/14 08:10:41;;;;;;;1.33;1.30;;;23.20;96.80;;;;;;4930645;29;20676;-66
2023/08/14 08:13:07;;;;;;;1.40;1.30;;;23.30;96.60;;;;;;4927961;29;20688;-65
2023/08/14 08:15:32;;;;;;;1.17;1.07;;;23.30;96.40;;;;;;4918620;29;20738;-65
2023/08/14 08:17:58;;;;;;;1.57;1.00;;;23.30;96.60;;;;;;4928395;29;20184;-65
2023/08/14 08:20:23;;;;;;;1.50;1.40;;;23.30;96.20;;;;;;4924567;29;20211;-66
2023/08/14 08:22:49;;;;;;;1.30;0.97;;;23.30;96.60;;;;;;4927449;29;20227;-65
2023/08/14 08:25:14;;;;;;;1.47;1.20;;;23.40;96.90;;;;;;4928852;29;20219;-65
2023/08/14 08:27:40;;;;;;;1.43;1.27;;;23.40;96.90;;;;;;4931937;29;20677;-65
2023/08/14 08:30:06;;;;;;;1.30;1.20;;;23.50;96.90;;;;;;4926618;29;20192;-65
2023/08/14 08:32:32;;;;;;;0.90;0.80;;;23.50;96.90;;;;;;4927725;29;20177;-65
2023/08/14 08:34:57;;;;;;;0.87;0.83;;;23.60;97.10;;;;;;4926422;29;20514;-65
2023/08/14 08:37:23;;;;;;;2.33;1.30;;;23.70;97.30;;;;;;4930120;29;20199;-66
2023/08/14 08:39:48;;;;;;;1.20;1.10;;;23.80;96.90;;;;;;4931098;29;20192;-65
2023/08/14 08:42:15;;;;;;;3.23;1.53;;;23.90;97.10;;;;;;4927209;29;20207;-65
2023/08/14 08:44:44;;;;;;;4.10;1.23;;;24.00;97.30;;;;;;4929448;29;20243;-65
2023/08/14 08:47:14;;;;;;;1.47;1.10;;;24.10;97.30;;;;;;4929595;29;20412;-65
2023/08/14 08:49:40;;;;;;;1.63;1.20;;;24.20;97.30;;;;;;4925631;29;20421;-66
2023/08/14 08:52:06;;;;;;;2.27;1.10;;;24.40;97.30;;;;;;4929130;29;20487;-65
2023/08/14 08:54:32;;;;;;;1.00;0.90;;;24.50;97.30;;;;;;4929237;29;20944;-65
2023/08/14 08:56:59;;;;;;;1.20;1.10;;;24.60;97.30;;;;;;4930805;29;20220;-65
2023/08/14 08:59:25;;;;;;;1.53;1.50;;;24.80;97.00;;;;;;4929749;29;20438;-66
2023/08/14 09:01:51;;;;;;;1.00;0.90;;;24.90;96.60;;;;;;4931278;29;20952;-66
2023/08/14 09:04:17;;;;;;;1.13;0.97;;;25.10;96.20;;;;;;4926978;29;20475;-66
2023/08/14 09:06:43;;;;;;;1.20;1.10;;;25.20;96.40;;;;;;4930049;29;20444;-65
2023/08/14 09:09:13;;;;;;;1.77;1.10;;;25.30;95.90;;;;;;4928951;29;20184;-66
2023/08/14 09:11:39;;;;;;;1.23;1.00;;;25.40;96.10;;;;;;4931486;29;20530;-66
2023/08/14 09:14:05;;;;;;;1.40;1.30;;;25.60;95.90;;;;;;4930772;29;20428;-66
2023/08/14 09:16:30;;;;;;;1.87;1.63;;;25.70;95.20;;;;;;4932958;29;20543;-66
2023/08/14 09:19:00;;;;;;;0.90;0.90;;;25.80;94.80;;;;;;4929365;29;20444;-66
2023/08/14 09:21:29;;;;;;;1.13;1.10;;;25.90;95.00;;;;;;4929707;29;20203;-66
2023/08/14 09:23:55;;;;;;;1.00;0.90;;;26.00;94.70;;;;;;4932301;29;20486;-66
2023/08/14 09:26:22;;;;;;;1.23;1.00;;;26.10;94.60;;;;;;4925878;29;20420;-66
2023/08/14 09:28:48;;;;;;;0.90;0.80;;;26.30;94.50;;;;;;4930919;29;20481;-66
2023/08/14 09:31:14;;;;;;;1.43;1.33;;;26.40;93.80;;;;;;4931578;29;20948;-66
2023/08/14 09:33:42;;;;;;;0.87;0.83;;;26.50;93.80;;;;;;4930644;29;20438;-65
2023/08/14 09:36:08;;;;;;;1.03;1.00;;;26.70;91.50;;;;;;4932031;29;20183;-65
2023/08/14 09:38:34;;;;;;;1.73;1.47;;;26.80;92.40;;;;;;4928472;28;20837;-65
2023/08/14 09:41:01;;;;;;;1.90;1.17;;;26.90;92.20;;;;;;4929488;29;20458;-66
2023/08/14 09:43:29;;;;;;;2.03;1.20;;;27.00;92.40;;;;;;4929642;29;20216;-66
2023/08/14 09:45:59;;;;;;;4.00;1.10;;;27.10;92.50;;;;;;4928077;29;20510;-66
2023/08/14 09:48:45;;;;;;;1.90;1.80;;;27.20;92.60;;;;;;4929637;29;20451;-65
2023/08/14 09:51:13;;;;;;;1.00;0.90;;;27.30;91.70;;;;;;4930797;29;20994;-66
2023/08/14 09:53:54;;;;;;;2.50;1.30;;;27.40;91.00;;;;;;4930888;29;20484;-66
2023/08/14 09:56:20;;;;;;;1.10;1.00;;;27.60;91.40;;;;;;4927172;29;20451;-66
2023/08/14 09:58:47;;;;;;;1.70;1.60;;;27.60;91.10;;;;;;4928539;29;20814;-65
2023/08/14 10:01:17;;;;;;;2.97;0.93;;;27.70;91.50;;;;;;4926752;29;20475;-65
2023/08/14 10:03:46;;;;;;;1.60;1.23;;;27.80;91.20;;;;;;4929487;29;20467;-66
2023/08/14 10:06:13;;;;;;;1.30;1.20;;;27.90;90.50;;;;;;4929716;29;20924;-65
2023/08/14 10:08:42;;;;;;;1.17;1.07;;;28.00;89.20;;;;;;4930440;29;20420;-66
2023/08/14 10:11:11;;;;;;;1.23;1.13;;;28.10;90.10;;;;;;4927119;29;20474;-66
2023/08/14 10:13:43;;;;;;;1.00;0.90;;;28.20;90.00;;;;;;4928726;29;20451;-66
2023/08/14 10:20:00;;;;;;;1.00;0.90;;;28.40;90.00;;;;;;4965382;28;20423;-92
2023/08/14 10:21:59;;;;;;;6.00;1.77;;;28.50;90.60;;;;;;4967240;28;20485;-91
2023/08/14 10:24:28;;;;;;;1.10;1.00;;;28.60;89.90;;;;;;4966528;28;20466;-91
2023/08/14 10:26:57;;;;;;;1.43;1.37;;;28.70;90.60;;;;;;4968087;28;20431;-94
2023/08/14 10:29:28;;;;;;;1.93;1.83;;;28.80;91.00;;;;;;4953404;28;20528;-91
2023/08/14 10:32:10;;;;;;;1.93;1.33;;;28.90;90.60;;;;;;4944855;28;20423;-91
2023/08/14 10:35:08;;;;;;;1.00;0.90;;;29.00;90.10;;;;;;4960512;28;20557;-92
2023/08/14 10:38:09;;;;;;;11.93;1.20;;;29.00;90.20;;;;;;4961367;28;20442;-92
2023/08/14 10:41:10;;;;;;;1.00;1.00;;;29.00;90.20;;;;;;4958812;28;20439;-91
2023/08/14 10:44:09;;;;;;;0.90;0.80;;;29.00;90.70;;;;;;4961798;28;20460;-91
2023/08/14 10:46:50;;;;;;;1.10;1.00;;;29.10;90.50;;;;;;4962252;28;20521;-91
2023/08/14 10:52:50;;;;;;;0.90;0.80;;;29.30;90.50;;;;;;4968770;28;20418;-91
2023/08/14 10:55:57;;;;;;;0.90;0.80;;;29.50;90.50;;;;;;4965650;28;20450;-91
2023/08/14 11:01:17;;;;;;;2.27;1.17;;;29.70;88.80;;;;;;4966069;28;20450;-90
2023/08/14 11:04:16;;;;;;;1.20;1.10;;;29.80;88.60;;;;;;4959269;28;20459;-90
2023/08/14 11:07:06;;;;;;;1.37;0.83;;;30.00;87.90;;;;;;4949241;29;20507;-93
2023/08/14 11:10:57;;;;;;;3.27;1.23;;;30.00;87.70;;;;;;4944947;28;20518;-90
2023/08/14 11:12:59;;;;;;;1.63;1.53;;;30.10;87.50;;;;;;4945616;28;20440;-94
2023/08/14 11:15:29;;;;;;;2.10;1.33;;;30.30;87.90;;;;;;4949781;28;21008;-93
2023/08/14 11:17:58;;;;;;;0.80;0.80;;;30.40;87.80;;;;;;4968227;28;20441;-91
2023/08/14 11:20:28;;;;;;;1.60;1.57;;;30.50;87.40;;;;;;4953326;28;20606;-92
2023/08/14 11:23:16;;;;;;;3.20;1.50;;;30.60;86.70;;;;;;4967028;28;20526;-91
2023/08/14 11:26:07;;;;;;;1.30;1.20;;;30.70;84.70;;;;;;4953298;28;20536;-92
2023/08/14 11:28:36;;;;;;;1.07;0.97;;;30.70;85.30;;;;;;4958684;28;20439;-92
2023/08/14 11:31:09;;;;;;;1.13;1.07;;;30.80;85.30;;;;;;4968811;28;21035;-91
2023/08/14 11:33:37;;;;;;;1.20;1.20;;;30.80;85.50;;;;;;4950435;28;20489;-92
2023/08/14 11:36:26;;;;;;;1.57;1.00;;;30.90;85.30;;;;;;4962048;28;20447;-90
2023/08/14 11:38:58;;;;;;;1.27;1.17;;;31.00;83.10;;;;;;4961418;28;20433;-92
2023/08/14 11:41:27;;;;;;;0.87;0.80;;;31.10;83.30;;;;;;4965950;28;20533;-90
2023/08/14 11:44:16;;;;;;;1.07;0.90;;;31.10;83.90;;;;;;4965694;28;20461;-91
2023/08/14 11:46:59;;;;;;;1.43;1.20;;;31.20;85.40;;;;;;4956295;28;20506;-90
2023/08/14 11:49:30;;;;;;;3.47;1.20;;;31.20;85.60;;;;;;4964250;28;20490;-92
2023/08/14 11:51:56;;;;;;;1.73;1.10;;;31.20;84.70;;;;;;4955450;28;20506;-90
2023/08/14 11:54:38;;;;;;;0.80;0.70;;;31.20;85.50;;;;;;4948451;28;20420;-92
2023/08/14 11:57:08;;;;;;;1.17;1.10;;;31.30;85.70;;;;;;4948064;28;20242;-90
2023/08/14 11:59:57;;;;;;;1.27;1.17;;;31.30;86.00;;;;;;4946532;28;20514;-91
2023/08/14 12:02:27;;;;;;;1.73;1.27;;;31.40;85.70;;;;;;4952551;28;20431;-96
2023/08/14 12:05:36;;;;;;;1.00;0.90;;;31.50;85.80;;;;;;4958229;28;20479;-95
2023/08/14 12:08:09;;;;;;;1.20;1.10;;;31.60;86.10;;;;;;4947747;28;20426;-92
2023/08/14 12:11:20;;;;;;;1.23;1.13;;;31.70;85.70;;;;;;4968029;28;20483;-89
2023/08/14 12:14:08;;;;;;;1.37;1.30;;;31.80;83.00;;;;;;4953132;28;20439;-93
2023/08/14 12:17:10;;;;;;;2.73;2.43;;;31.70;83.40;;;;;;4964611;28;20455;-90
2023/08/14 12:19:39;;;;;;;2.20;1.30;;;31.80;84.70;;;;;;4965306;28;20423;-91
2023/08/14 12:22:40;;;;;;;0.87;0.83;;;31.70;83.50;;;;;;4951986;28;20436;-90
2023/08/14 12:25:30;;;;;;;1.60;1.27;;;31.60;85.00;;;;;;4955663;28;20525;-90
2023/08/14 12:28:19;;;;;;;1.97;1.80;;;31.60;84.60;;;;;;4948603;28;20424;-90
2023/08/14 12:30:59;;;;;;;1.47;1.20;;;31.70;84.80;;;;;;4944190;28;20918;-90
2023/08/14 12:33:28;;;;;;;1.00;0.90;;;31.70;85.60;;;;;;4944198;28;20439;-90
2023/08/14 12:35:56;;;;;;;1.73;1.53;;;31.90;85.80;;;;;;4954753;28;20464;-92
2023/08/14 12:38:27;;;;;;;1.20;1.13;;;31.90;85.60;;;;;;4948627;28;20486;-91
2023/08/14 12:41:16;;;;;;;1.67;1.30;;;31.90;84.90;;;;;;4952153;28;20431;-91
2023/08/14 12:43:48;;;;;;;3.17;2.30;;;31.90;84.60;;;;;;4950036;28;20460;-91
2023/08/14 12:46:16;;;;;;;5.50;1.33;;;31.70;84.60;;;;;;4946376;28;20498;-92
2023/08/14 12:48:49;;;;;;;2.00;1.67;;;31.60;85.40;;;;;;4946927;28;20447;-91
2023/08/14 12:51:18;;;;;;;1.93;1.10;;;31.50;85.60;;;;;;4947110;28;20444;-93
2023/08/14 12:53:46;;;;;;;3.80;2.30;;;31.40;85.70;;;;;;4960720;28;20444;-91
2023/08/14 12:56:29;;;;;;;1.17;1.07;;;31.40;87.40;;;;;;4948983;28;20467;-92
2023/08/14 12:58:57;;;;;;;1.00;0.90;;;31.30;86.70;;;;;;4961089;28;20443;-92
2023/08/14 13:01:46;;;;;;;2.10;1.17;;;31.20;86.80;;;;;;4955861;28;20498;-92
2023/08/14 13:04:18;;;;;;;1.30;1.20;;;31.20;87.10;;;;;;4959268;28;20513;-93
2023/08/14 13:06:46;;;;;;;1.33;1.20;;;31.30;87.80;;;;;;4951302;28;20443;-93
2023/08/14 13:12:38;;;;;;;2.13;1.40;;;31.60;87.00;;;;;;4948393;28;20466;-90
2023/08/14 13:15:07;;;;;;;1.43;1.23;;;32.00;87.80;;;;;;4953975;28;20486;-90
2023/08/14 13:17:56;;;;;;;1.43;1.30;;;32.30;87.80;;;;;;4965672;28;20570;-92
2023/08/14 13:20:30;;;;;;;2.40;1.83;;;32.50;85.70;;;;;;4961806;28;20490;-93
2023/08/14 13:22:56;;;;;;;1.30;1.30;;;32.60;85.40;;;;;;4964686;28;20874;-93
2023/08/14 13:25:27;;;;;;;1.17;1.17;;;32.60;85.70;;;;;;4954312;28;20526;-89
2023/08/14 13:28:16;;;;;;;1.43;1.33;;;32.60;85.60;;;;;;4951905;28;20227;-90
2023/08/14 13:30:49;;;;;;;1.63;1.47;;;32.60;85.60;;;;;;4943861;28;20451;-92
2023/08/14 13:33:18;;;;;;;1.63;1.40;;;32.60;86.10;;;;;;4952889;28;20430;-90
2023/08/14 13:35:47;;;;;;;1.80;1.70;;;32.70;85.60;;;;;;4958431;28;20441;-92
2023/08/14 13:38:20;;;;;;;1.27;1.17;;;32.80;85.60;;;;;;4949659;28;20432;-91
2023/08/14 13:40:48;;;;;;;2.20;1.53;;;32.90;84.40;;;;;;4952632;28;20439;-88
2023/08/14 13:43:17;;;;;;;1.53;1.43;;;33.00;85.00;;;;;;4953661;28;20458;-90
2023/08/14 13:46:26;;;;;;;1.40;1.30;;;33.00;84.30;;;;;;4939309;28;20671;-88
2023/08/14 13:49:02;;;;;;;1.77;1.73;;;32.90;84.00;;;;;;4936843;28;20997;-88
2023/08/14 13:51:28;;;;;;;1.67;1.30;;;32.70;82.80;;;;;;4938691;28;20447;-88
2023/08/14 13:53:56;;;;;;;1.50;1.40;;;32.60;85.00;;;;;;4946903;28;20435;-91
2023/08/14 13:56:30;;;;;;;2.00;1.90;;;32.40;84.00;;;;;;4948024;28;20226;-87
2023/08/14 13:58:58;;;;;;;1.27;1.17;;;32.20;85.10;;;;;;4949398;28;20491;-86
2023/08/14 14:01:26;;;;;;;1.00;0.90;;;32.00;84.90;;;;;;4934770;28;20579;-88
2023/08/14 14:03:57;;;;;;;1.47;1.10;;;31.80;84.50;;;;;;4938054;28;20522;-86
2023/08/14 14:06:22;;;;;;;4.30;1.60;;;31.60;85.40;;;;;;4938129;28;20463;-87
2023/08/14 14:08:48;;;;;;;1.57;1.57;;;31.50;85.70;;;;;;4951856;28;20430;-86
2023/08/14 14:11:16;;;;;;;1.47;1.37;;;31.30;85.70;;;;;;4958499;28;20418;-86
2023/08/14 14:13:49;;;;;;;1.77;1.67;;;31.20;86.30;;;;;;4942581;28;20230;-86
2023/08/14 14:16:44;;;;;;;1.80;1.17;;;31.10;86.20;;;;;;4948853;28;20505;-86
2023/08/14 14:19:09;;;;;;;0.97;0.97;;;31.00;86.40;;;;;;4943756;28;20469;-84
2023/08/14 14:21:38;;;;;;;2.00;1.17;;;31.00;86.50;;;;;;4941894;28;20446;-91
2023/08/14 14:24:28;;;;;;;1.47;0.93;;;30.90;86.10;;;;;;4955820;28;20211;-86
2023/08/14 14:26:59;;;;;;;1.17;0.90;;;30.50;87.40;;;;;;4948046;28;20440;-88
2023/08/14 14:29:29;;;;;;;0.90;0.80;;;29.60;88.20;;;;;;4950642;28;20494;-89
2023/08/14 14:32:10;;;;;;;1.53;1.37;;;28.50;90.00;;;;;;4960801;28;20450;-90
2023/08/14 14:34:35;;;;;;;0.90;0.80;;;27.40;92.40;;;;;;4960335;23;20461;-63
2023/08/14 14:37:01;;;;;;;1.10;0.80;;;26.70;93.40;;;;;;4935571;29;20448;-63
2023/08/14 14:39:26;;;;;;;1.27;1.00;;;26.30;94.30;;;;;;4930397;28;20187;-64
2023/08/14 14:41:52;;;;;;;1.17;1.07;;;26.10;95.00;;;;;;4916539;29;20323;-63
2023/08/14 14:44:17;;;;;;;2.07;1.93;;;26.00;95.30;;;;;;4912710;29;20226;-63
2023/08/14 14:46:43;;;;;;;0.90;0.90;;;25.90;95.40;;;;;;4918114;29;20176;-64
2023/08/14 14:49:09;;;;;;;0.90;0.80;;;25.90;95.70;;;;;;4917537;29;20188;-63
2023/08/14 14:51:35;;;;;;;7.00;1.47;;;25.90;96.40;;;;;;4913323;29;20216;-63
2023/08/14 14:54:01;;;;;;;1.07;0.97;;;25.80;96.50;;;;;;4913282;29;20184;-58
2023/08/14 14:56:27;;;;;;;1.10;1.00;;;25.70;96.60;;;;;;4910763;29;20198;-58
2023/08/14 14:58:52;;;;;;;0.90;0.83;;;25.70;96.40;;;;;;4902941;29;20436;-59
2023/08/14 15:01:18;;;;;;;0.97;0.90;;;25.60;96.00;;;;;;4904785;29;20204;-59
2023/08/14 15:03:43;;;;;;;2.60;1.03;;;25.60;95.90;;;;;;4910134;29;20587;-58
2023/08/14 15:06:09;;;;;;;0.90;0.80;;;25.70;96.40;;;;;;4912115;29;20183;-58
2023/08/14 15:08:39;;;;;;;1.13;1.03;;;25.70;96.20;;;;;;4916638;29;20731;-58
2023/08/14 15:11:06;;;;;;;3.07;1.23;;;25.70;97.00;;;;;;4921265;29;20577;-58
2023/08/14 15:13:31;;;;;;;1.67;1.40;;;25.60;97.30;;;;;;4918746;29;21021;-58
2023/08/14 15:15:57;;;;;;;1.20;1.10;;;25.40;97.30;;;;;;4920816;29;20412;-58
2023/08/14 15:18:22;;;;;;;1.10;1.00;;;25.50;97.30;;;;;;4908937;29;20252;-57
2023/08/14 15:20:48;;;;;;;1.57;1.47;;;25.70;97.30;;;;;;4914559;29;20204;-60
2023/08/14 15:23:14;;;;;;;1.00;0.90;;;25.90;97.30;;;;;;4914870;29;20188;-58
2023/08/14 15:25:40;;;;;;;0.90;0.80;;;26.00;97.30;;;;;;4912406;29;20604;-59
2023/08/14 15:28:06;;;;;;;1.20;1.10;;;26.00;97.30;;;;;;4920322;29;20428;-58
2023/08/14 15:30:33;;;;;;;1.47;1.43;;;25.90;97.30;;;;;;4916716;29;20203;-57
2023/08/14 15:32:59;;;;;;;1.20;1.10;;;25.80;97.30;;;;;;4916902;29;20180;-58
2023/08/14 15:35:25;;;;;;;2.43;2.23;;;25.70;97.30;;;;;;4925834;29;20610;-58
2023/08/14 15:37:50;;;;;;;1.10;1.10;;;25.60;97.30;;;;;;4911116;29;20593;-58
2023/08/14 15:40:17;;;;;;;1.00;0.90;;;25.60;97.30;;;;;;4917778;29;20324;-58
2023/08/14 15:42:48;;;;;;;1.03;0.93;;;25.80;97.30;;;;;;4924680;29;20875;-58
2023/08/14 15:45:14;;;;;;;1.27;1.17;;;26.00;97.30;;;;;;4913957;29;20559;-58
2023/08/14 15:47:39;;;;;;;2.40;1.60;;;26.20;97.30;;;;;;4907142;29;20425;-58
2023/08/14 15:50:05;;;;;;;1.23;1.00;;;26.40;97.30;;;;;;4913484;29;20210;-57
2023/08/14 15:52:31;;;;;;;1.20;1.10;;;26.50;97.30;;;;;;4910599;29;20192;-58
2023/08/14 15:54:58;;;;;;;1.50;1.40;;;26.60;97.30;;;;;;4912384;29;20432;-58
2023/08/14 15:57:24;;;;;;;0.90;0.80;;;26.70;97.30;;;;;;4909121;29;20284;-58
2023/08/14 15:59:50;;;;;;;1.40;1.30;;;26.70;97.30;;;;;;4901787;29;20640;-58
2023/08/14 16:02:18;;;;;;;1.10;1.00;;;26.70;97.30;;;;;;4908854;29;20452;-58
2023/08/14 16:04:46;;;;;;;1.47;1.00;;;26.80;97.30;;;;;;4910540;29;20492;-58
2023/08/14 16:07:12;;;;;;;1.47;1.07;;;26.90;97.30;;;;;;4910231;29;20480;-58
2023/08/14 16:09:38;;;;;;;1.30;1.03;;;26.90;97.30;;;;;;4909007;29;20429;-58
2023/08/14 16:12:04;;;;;;;1.67;1.20;;;27.00;97.30;;;;;;4910613;29;20287;-58
2023/08/14 16:14:29;;;;;;;0.90;0.80;;;27.10;97.30;;;;;;4911987;29;20196;-57
2023/08/14 16:16:55;;;;;;;1.87;1.77;;;27.20;97.20;;;;;;4958252;23;20494;-61
2023/08/14 16:19:20;;;;;;;3.67;1.73;;;27.30;97.30;;;;;;4949880;28;20183;-61
2023/08/14 16:21:46;;;;;;;1.10;1.00;;;27.40;97.30;;;;;;4941130;28;20695;-61
2023/08/14 16:24:11;;;;;;;1.57;1.47;;;27.60;97.30;;;;;;4947663;28;20289;-62
2023/08/14 16:26:37;;;;;;;2.37;1.93;;;27.70;97.30;;;;;;4947787;28;20695;-62
2023/08/14 16:29:03;;;;;;;2.73;1.13;;;27.80;97.30;;;;;;4939983;28;20780;-62
2023/08/14 16:31:28;;;;;;;1.00;0.90;;;27.90;97.30;;;;;;4942999;28;20648;-63
2023/08/14 16:33:54;;;;;;;0.90;0.80;;;27.90;97.30;;;;;;4944813;28;20183;-63
2023/08/14 16:36:19;;;;;;;1.23;1.17;;;28.00;97.30;;;;;;4949471;28;20183;-62
2023/08/14 16:38:45;;;;;;;1.20;1.03;;;27.90;97.30;;;;;;4951144;28;20187;-63
2023/08/14 16:41:10;;;;;;;1.27;1.20;;;27.80;97.30;;;;;;4949866;28;20198;-63
2023/08/14 16:43:36;;;;;;;3.80;2.20;;;27.80;97.30;;;;;;4950763;28;20230;-62
2023/08/14 16:46:02;;;;;;;1.80;1.10;;;27.70;97.30;;;;;;4951163;28;20802;-63
2023/08/14 16:48:27;;;;;;;1.20;1.07;;;27.50;97.30;;;;;;4951078;28;20179;-62
2023/08/14 16:50:53;;;;;;;2.13;1.50;;;27.40;97.30;;;;;;4951054;28;20441;-62
2023/08/14 16:53:20;;;;;;;1.60;1.50;;;27.50;97.30;;;;;;4949275;28;20183;-63
2023/08/14 16:55:45;;;;;;;2.40;1.60;;;27.50;97.30;;;;;;4949879;28;20215;-62
2023/08/14 16:58:11;;;;;;;1.00;0.90;;;27.50;97.30;;;;;;4949190;29;20457;-63
2023/08/14 17:00:38;;;;;;;1.73;1.63;;;27.40;97.30;;;;;;4949392;28;20746;-63
2023/08/14 17:03:04;;;;;;;1.10;1.00;;;27.40;97.30;;;;;;4950795;28;20210;-62
2023/08/14 17:05:31;;;;;;;1.27;0.90;;;27.30;97.30;;;;;;4950860;28;20978;-63
2023/08/14 17:07:57;;;;;;;1.40;1.30;;;27.20;97.30;;;;;;4950688;28;20418;-63
2023/08/14 17:10:22;;;;;;;1.73;1.30;;;27.20;97.30;;;;;;4949637;28;20419;-65
2023/08/14 17:12:48;;;;;;;4.23;1.30;;;27.10;97.30;;;;;;4949369;28;20191;-65
2023/08/14 17:15:14;;;;;;;1.47;1.40;;;27.10;97.30;;;;;;4950789;28;20246;-65